Wilmington, North Carolina
Current Conditions -  °F | °C
As of 2:53 PM on Thursday 23 Oct 2014 (Local Time) from KILM Reporting Station
Clear Clear  
Wind Chill: 69°   Ceiling: Unl
Heat Index: 69°   Visibility: 10mi
Dew Point: 42°   Wind: 15mph
Humidity: 38%   Direction: 290°WNW
Pressure: 29.92"   Gusts: 21mph
Location:  34.24°N, 77.94°W
Report Text: KILM 231853Z 29013G18KT 10SM CLR 21/06 A2992 RMK AO2 SLP132 T02060056
Loading
Personal Weather Stations






























Interactive Weather Map
Tropical Storm Tracking
New forecast layout! Learn more

10-Day Weather Forecast

Advertisements
Track Severe Weather on mobile